Cielo Di Iyo — HOET — position and weather

sailwx.info

Track history (hours):
 
Tides and Currents Weather Stations Pressure Air Temp Water Temp Dewpoint Dewpoint Depression Visibility Wind Speed Wind Dir Waves Ship Positions

Cielo Di Iyo

Last reported at 2017-Mar-28 17:30 UTC. Time now 2017-Mar-29 11:14 UTC.
Position N 53°49' W 010°39'.

Length 183 m; draft 7.4 m.

Type: Cargo ship. MMSI: 372771000.

Date/timePositionNaut miles runAvg speedWind from/ knotsBaromVisibWave heightAir tempDewpointWater temp
2017-Mar-28 17:30N 53°49' W 010°39'2813.6
2017-Mar-28 15:28N 53°22' W 010°44'  
2017-Mar-25 21:33N 39°32' W 009°52'1212.0
2017-Mar-25 20:33N 39°20' W 009°52'1211.6
2017-Mar-25 19:33N 39°08' W 009°51'1211.9
2017-Mar-25 18:33N 38°56' W 009°51'1211.8
2017-Mar-25 17:33N 38°44' W 009°52'1211.5
2017-Mar-25 16:33N 38°33' W 009°48'1111.3
2017-Mar-25 15:33N 38°22' W 009°45'1111.3
2017-Mar-25 14:33N 38°11' W 009°42'1111.3
2017-Mar-25 13:33N 38°00' W 009°38'1111.1
2017-Mar-25 12:33N 37°49' W 009°35'1111.0
2017-Mar-25 11:32N 37°38' W 009°31'67 9.6
2017-Mar-25 04:29N 36°40' W 008°50'16711.6
2017-Mar-24 14:07N 35°59' W 005°29'610.5
2017-Mar-24 13:33N 36°01' W 005°22'  
2017-Mar-21 13:30N 36°07' W 005°10'1010.3
2017-Mar-21 12:33N 36°05' W 005°21'2 2.4
2017-Mar-21 11:32N 36°08' W 005°22'0 0.0
2017-Mar-21 10:32N 36°08' W 005°22'0 0.0
2017-Mar-21 09:32N 36°08' W 005°22'0 0.0
2017-Mar-21 08:32N 36°08' W 005°22'0 0.0
2017-Mar-21 07:32N 36°08' W 005°22'0 0.0
2017-Mar-21 06:32N 36°08' W 005°22'0 0.1
2017-Mar-21 05:32N 36°08' W 005°22'0 0.0
2017-Mar-21 04:32N 36°08' W 005°22'0 0.0
2017-Mar-21 03:32N 36°08' W 005°22'0 0.0
2017-Mar-21 02:32N 36°08' W 005°22'0 0.0
2017-Mar-21 01:32N 36°08' W 005°22'0 0.0
2017-Mar-21 00:32N 36°08' W 005°22'0 0.0
2017-Mar-20 23:32N 36°08' W 005°22'0 0.0
2017-Mar-20 22:32N 36°08' W 005°22'0 0.0
2017-Mar-20 21:32N 36°08' W 005°22'0 0.1
2017-Mar-20 20:32N 36°08' W 005°22'0 0.1
2017-Mar-20 19:32N 36°08' W 005°22'0 0.0
2017-Mar-20 18:32N 36°08' W 005°22'0 0.0
2017-Mar-20 17:32N 36°08' W 005°22'0 0.1
2017-Mar-20 16:32N 36°08' W 005°22'0 0.1
2017-Mar-20 15:32N 36°08' W 005°22'0 0.2
2017-Mar-20 14:33N 36°08' W 005°22'6 6.2
2017-Mar-20 13:34N 36°05' W 005°15'1010.0
2017-Mar-20 12:33N 36°08' W 005°03'15 6.4
2017-Mar-20 10:12N 36°17' W 004°48'5 6.1
2017-Mar-20 09:24N 36°15' W 004°54'2 2.4
2017-Mar-20 08:29N 36°13' W 004°55'2 1.3
2017-Mar-20 06:33N 36°11' W 004°56'0 0.3
2017-Mar-20 05:33N 36°11' W 004°56'0 0.1
2017-Mar-20 04:33N 36°11' W 004°56'1 0.5
2017-Mar-20 03:34N 36°11' W 004°56'1 0.5
2017-Mar-20 02:31N 36°12' W 004°56'2 1.9
2017-Mar-20 01:34N 36°13' W 004°57'7 6.8
2017-Mar-20 00:34N 36°18' W 005°04'1 0.7
2017-Mar-19 23:34N 36°18' W 005°04'0 0.1
2017-Mar-19 22:34N 36°18' W 005°04'1 1.0
2017-Mar-19 21:33N 36°17' W 005°04'1 0.5
2017-Mar-19 20:33N 36°17' W 005°04'1 0.7
2017-Mar-19 19:33N 36°17' W 005°03'1 1.3
2017-Mar-19 18:33N 36°17' W 005°01'5 4.7
2017-Mar-19 17:28N 36°12' W 005°03'9 9.9
2017-Mar-19 16:33N 36°08' W 005°12'0 0.3
2017-Mar-19 15:33N 36°07' W 005°12'0 0.3
2017-Mar-19 14:33N 36°07' W 005°12'0 0.4
2017-Mar-19 13:33N 36°07' W 005°12'0 0.3
2017-Mar-19 12:33N 36°07' W 005°11'0 0.3
2017-Mar-19 11:33N 36°08' W 005°11'0 0.3
2017-Mar-19 10:33N 36°08' W 005°11'1 0.7
2017-Mar-19 09:33N 36°08' W 005°10'1 0.7
2017-Mar-19 08:33N 36°08' W 005°09'1 0.6
2017-Mar-19 07:33N 36°08' W 005°08'1 0.8
2017-Mar-19 06:32N 36°08' W 005°07'1 0.9
2017-Mar-19 05:33N 36°08' W 005°06'1 0.9
2017-Mar-19 04:33N 36°08' W 005°05'2 1.5
2017-Mar-19 03:33N 36°08' W 005°03'1 0.8
2017-Mar-19 02:20N 36°08' W 005°02'4 5.0
2017-Mar-19 01:31N 36°04' W 005°05'6 6.1
2017-Mar-19 00:33N 35°60' W 005°09'2 1.6
2017-Mar-18 23:33N 36°01' W 005°08'2 1.5
2017-Mar-18 22:32N 36°02' W 005°07'1 1.5
2017-Mar-18 21:33N 36°04' W 005°06'1 1.2
2017-Mar-18 20:31N 36°05' W 005°06'1 1.2
2017-Mar-18 19:33N 36°06' W 005°05'1 1.1
2017-Mar-18 18:33N 36°07' W 005°04'1 1.1
2017-Mar-18 17:34N 36°07' W 005°03'  
Track history (hours):
 
Tides and Currents Weather Stations Pressure Air Temp Water Temp Dewpoint Dewpoint Depression Visibility Wind Speed Wind Dir Waves Ship Positions

Cielo Di Iyo

Last reported at 2017-Mar-28 17:30 UTC. Time now 2017-Mar-29 11:14 UTC.
Position N 53°49' W 010°39'.

Length 183 m; draft 7.4 m.

Type: Cargo ship. MMSI: 372771000.

Date/timePositionNaut miles runAvg speedWind from/ knotsBaromVisibWave heightAir tempDewpointWater temp
2017-Mar-28 17:30N 53°49' W 010°39'2813.6
2017-Mar-28 15:28N 53°22' W 010°44'  
2017-Mar-25 21:33N 39°32' W 009°52'1212.0
2017-Mar-25 20:33N 39°20' W 009°52'1211.6
2017-Mar-25 19:33N 39°08' W 009°51'1211.9
2017-Mar-25 18:33N 38°56' W 009°51'1211.8
2017-Mar-25 17:33N 38°44' W 009°52'1211.5
2017-Mar-25 16:33N 38°33' W 009°48'1111.3
2017-Mar-25 15:33N 38°22' W 009°45'1111.3
2017-Mar-25 14:33N 38°11' W 009°42'1111.3
2017-Mar-25 13:33N 38°00' W 009°38'1111.1
2017-Mar-25 12:33N 37°49' W 009°35'1111.0
2017-Mar-25 11:32N 37°38' W 009°31'67 9.6
2017-Mar-25 04:29N 36°40' W 008°50'16711.6
2017-Mar-24 14:07N 35°59' W 005°29'610.5
2017-Mar-24 13:33N 36°01' W 005°22'  
2017-Mar-21 13:30N 36°07' W 005°10'1010.3
2017-Mar-21 12:33N 36°05' W 005°21'2 2.4
2017-Mar-21 11:32N 36°08' W 005°22'0 0.0
2017-Mar-21 10:32N 36°08' W 005°22'0 0.0
2017-Mar-21 09:32N 36°08' W 005°22'0 0.0
2017-Mar-21 08:32N 36°08' W 005°22'0 0.0
2017-Mar-21 07:32N 36°08' W 005°22'0 0.0
2017-Mar-21 06:32N 36°08' W 005°22'0 0.1
2017-Mar-21 05:32N 36°08' W 005°22'0 0.0
2017-Mar-21 04:32N 36°08' W 005°22'0 0.0
2017-Mar-21 03:32N 36°08' W 005°22'0 0.0
2017-Mar-21 02:32N 36°08' W 005°22'0 0.0
2017-Mar-21 01:32N 36°08' W 005°22'0 0.0
2017-Mar-21 00:32N 36°08' W 005°22'0 0.0
2017-Mar-20 23:32N 36°08' W 005°22'0 0.0
2017-Mar-20 22:32N 36°08' W 005°22'0 0.0
2017-Mar-20 21:32N 36°08' W 005°22'0 0.1
2017-Mar-20 20:32N 36°08' W 005°22'0 0.1
2017-Mar-20 19:32N 36°08' W 005°22'0 0.0
2017-Mar-20 18:32N 36°08' W 005°22'0 0.0
2017-Mar-20 17:32N 36°08' W 005°22'0 0.1
2017-Mar-20 16:32N 36°08' W 005°22'0 0.1
2017-Mar-20 15:32N 36°08' W 005°22'0 0.2
2017-Mar-20 14:33N 36°08' W 005°22'6 6.2
2017-Mar-20 13:34N 36°05' W 005°15'1010.0
2017-Mar-20 12:33N 36°08' W 005°03'15 6.4
2017-Mar-20 10:12N 36°17' W 004°48'5 6.1
2017-Mar-20 09:24N 36°15' W 004°54'2 2.4
2017-Mar-20 08:29N 36°13' W 004°55'2 1.3
2017-Mar-20 06:33N 36°11' W 004°56'0 0.3
2017-Mar-20 05:33N 36°11' W 004°56'0 0.1
2017-Mar-20 04:33N 36°11' W 004°56'1 0.5
2017-Mar-20 03:34N 36°11' W 004°56'1 0.5
2017-Mar-20 02:31N 36°12' W 004°56'2 1.9
2017-Mar-20 01:34N 36°13' W 004°57'7 6.8
2017-Mar-20 00:34N 36°18' W 005°04'1 0.7
2017-Mar-19 23:34N 36°18' W 005°04'0 0.1
2017-Mar-19 22:34N 36°18' W 005°04'1 1.0
2017-Mar-19 21:33N 36°17' W 005°04'1 0.5
2017-Mar-19 20:33N 36°17' W 005°04'1 0.7
2017-Mar-19 19:33N 36°17' W 005°03'1 1.3
2017-Mar-19 18:33N 36°17' W 005°01'5 4.7
2017-Mar-19 17:28N 36°12' W 005°03'9 9.9
2017-Mar-19 16:33N 36°08' W 005°12'0 0.3
2017-Mar-19 15:33N 36°07' W 005°12'0 0.3
2017-Mar-19 14:33N 36°07' W 005°12'0 0.4
2017-Mar-19 13:33N 36°07' W 005°12'0 0.3
2017-Mar-19 12:33N 36°07' W 005°11'0 0.3
2017-Mar-19 11:33N 36°08' W 005°11'0 0.3
2017-Mar-19 10:33N 36°08' W 005°11'1 0.7
2017-Mar-19 09:33N 36°08' W 005°10'1 0.7
2017-Mar-19 08:33N 36°08' W 005°09'1 0.6
2017-Mar-19 07:33N 36°08' W 005°08'1 0.8
2017-Mar-19 06:32N 36°08' W 005°07'1 0.9
2017-Mar-19 05:33N 36°08' W 005°06'1 0.9
2017-Mar-19 04:33N 36°08' W 005°05'2 1.5
2017-Mar-19 03:33N 36°08' W 005°03'1 0.8
2017-Mar-19 02:20N 36°08' W 005°02'4 5.0
2017-Mar-19 01:31N 36°04' W 005°05'6 6.1
2017-Mar-19 00:33N 35°60' W 005°09'2 1.6
2017-Mar-18 23:33N 36°01' W 005°08'2 1.5
2017-Mar-18 22:32N 36°02' W 005°07'1 1.5
2017-Mar-18 21:33N 36°04' W 005°06'1 1.2
2017-Mar-18 20:31N 36°05' W 005°06'1 1.2
2017-Mar-18 19:33N 36°06' W 005°05'1 1.1
2017-Mar-18 18:33N 36°07' W 005°04'1 1.1
2017-Mar-18 17:34N 36°07' W 005°03'  

Dump ship's entire track history